Data for 01/02/2013

Time Sea-Level Adjusted Pressure Absolute Pressure Temperature Relative Humidity Dew Point Precipitation   
(mb) (inHg) (mb) (inHg) (C) (F) (%) (C) (F) (mm) (in)
08:55 1029 30.39 859 25.37 -19.4 -3 79 -22.3 -8.1 0 0
08:56 1029 30.39 859 25.37 -19.5 -3 79 -22.3 -8.2 0 0
08:57 1029 30.39 859 25.37 -19.4 -3 78 -22.3 -8.2 0 0
08:58 1029 30.39 859 25.37 -19.3 -2.8 80 -21.9 -7.4 0 0
08:59 1029 30.39 859 25.37 -19.2 -2.5 80 -21.8 -7.3 0 0
09:00 1029 30.39 859 25.37 -19.1 -2.3 79 -21.8 -7.3 0 0
09:01 1029 30.39 859 25.37 -19.1 -2.3 78 -22 -7.7 0 0
09:02 1029 30.39 859 25.37 -19.1 -2.5 80 -21.7 -7.1 0 0
09:03 1030 30.42 859 25.37 -18.9 -2 83 -21.1 -6 0 0
09:04 1030 30.42 859 25.37 -18.5 -1.4 85 -20.5 -4.9 0 0
09:05 1030 30.42 859 25.37 -18 -0.5 85 -20 -4.1 0 0
09:06 1030 30.42 859 25.37 -17.5 0.5 86 -19.3 -2.7 0 0
09:07 1030 30.42 859 25.37 -17.2 1.1 79 -19.9 -3.9 0 0
09:08 1030 30.42 859 25.37 -17.4 0.8 77 -20.5 -4.8 0 0
09:09 1030 30.42 859 25.37 -17.5 0.5 79 -20.3 -4.6 0 0
09:10 1030 30.42 859 25.37 -17.3 0.8 83 -19.6 -3.3 0 0
09:11 1030 30.42 859 25.37 -17.3 0.9 76 -20.6 -5 0 0
09:12 1030 30.42 859 25.37 -17.4 0.8 82 -19.8 -3.7 0 0
09:13 1030 30.42 859 25.37 -17.3 0.9 78 -20.2 -4.4 0 0
09:14 1030 30.42 859 25.37 -17.5 0.4 76 -20.7 -5.3 0 0
09:15 1030 30.42 859 25.37 -17.8 -0.1 75 -21.2 -6.2 0 0
09:16 1030 30.42 859 25.37 -18.1 -0.7 78 -21 -5.9 0 0
09:17 1030 30.42 859 25.37 -18.4 -1 77 -21.5 -6.8 0 0
09:18 1030 30.42 859 25.37 -18.5 -1.4 78 -21.4 -6.6 0 0
09:19 1030 30.42 859 25.37 -18.6 -1.6 80 -21.4 -6.4 0 0
09:20 1030 30.42 859 25.37 -18.7 -1.7 78 -21.6 -6.9 0 0
09:21 1030 30.42 859 25.37 -18.8 -1.8 78 -21.6 -7 0 0
09:22 1030 30.42 859 25.37 -18.8 -1.8 80 -21.5 -6.7 0 0
09:23 1030 30.42 859 25.37 -18.6 -1.4 83 -20.8 -5.5 0 0
09:24 1030 30.42 859 25.37 -18.1 -0.6 83 -20.3 -4.6 0 0
09:25 1030 30.42 859 25.37 -17.8 -0 80 -20.5 -4.9 0 0
09:26 1030 30.42 859 25.37 -17.9 -0.2 76 -21.2 -6.1 0 0
09:27 1030 30.42 859 25.37 -18.1 -0.7 77 -21.2 -6.1 0 0
09:28 1030 30.42 859 25.37 -18.1 -0.5 78 -21 -5.8 0 0
09:29 1030 30.42 859 25.37 -18.2 -0.7 76 -21.5 -6.6 0 0
09:30 1030 30.42 859 25.37 -18.3 -0.9 78 -21.2 -6.2 0 0
09:31 1030 30.42 859 25.37 -18.2 -0.8 78 -21.2 -6.1 0 0
09:32 1030 30.42 859 25.37 -18 -0.3 81 -20.4 -4.8 0 0
09:33 1030 30.42 859 25.37 -17.5 0.5 81 -20.1 -4.1 0 0
09:34 1030 30.42 859 25.37 -17.3 0.9 78 -20.2 -4.4 0 0
09:35 1030 30.42 859 25.37 -17.3 0.8 75 -20.7 -5.3 0 0
09:36 1030 30.42 859 25.37 -17.4 0.7 75 -20.8 -5.5 0 0
09:37 1030 30.42 859 25.37 -17.5 0.6 75 -20.9 -5.5 0 0
09:38 1030 30.42 859 25.37 -17.5 0.5 75 -21 -5.7 0 0
09:39 1030 30.42 859 25.37 -17.5 0.4 75 -20.9 -5.7 0 0
09:40 1030 30.42 859 25.37 -17.5 0.5 75 -20.9 -5.7 0 0
09:41 1030 30.42 859 25.37 -17.6 0.4 75 -21 -5.9 0 0
09:42 1030 30.42 859 25.37 -17.7 0.2 73 -21.4 -6.5 0 0
09:43 1030 30.42 859 25.37 -17.8 -0 74 -21.5 -6.6 0 0
09:44 1030 30.42 859 25.37 -18 -0.4 75 -21.4 -6.6 0 0
09:45 1030 30.42 859 25.37 -17.9 -0.3 77 -21.1 -6 0 0
09:46 1030 30.42 859 25.37 -17.8 0 78 -20.8 -5.4 0 0
09:47 1030 30.42 859 25.37 -17.6 0.3 77 -20.8 -5.4 0 0
09:48 1030 30.42 859 25.37 -17.4 0.6 77 -20.6 -5.1 0 0
09:49 1030 30.42 859 25.37 -17.3 0.9 76 -20.6 -5.1 0 0
09:50 1030 30.42 859 25.37 -17 1.4 80 -19.7 -3.4 0 0
09:51 1030 30.42 859 25.37 -16.4 2.5 82 -18.8 -1.8 0 0
09:52 1030 30.42 859 25.37 -16 3.1 74 -19.7 -3.4 0 0
09:53 1030 30.42 859 25.37 -16.3 2.8 71 -20.4 -4.8 0 0
09:54 1030 30.42 859 25.37 -16.7 2 72 -20.6 -5.1 0 0
09:55 1030 30.42 859 25.37 -17 1.5 76 -20.2 -4.3 0 0
09:56 1030 30.42 859 25.37 -16.9 1.6 79 -19.8 -3.6 0 0
09:57 1030 30.42 859 25.37 -16.7 2 79 -19.5 -3.1 0 0
09:58 1030 30.42 859 25.37 -16.5 2.3 77 -19.6 -3.3 0 0
09:59 1030 30.42 859 25.37 -16.6 2.2 74 -20.1 -4.2 0 0
10:00 1030 30.42 859 25.37 -16.6 2.1 78 -19.7 -3.4 0 0
10:01 1030 30.42 859 25.37 -16.5 2.2 77 -19.6 -3.3 0 0
10:02 1030 30.42 859 25.37 -16.5 2.3 79 -19.4 -2.9 0 0
10:03 1030 30.42 859 25.37 -16.4 2.6 78 -19.4 -2.9 0 0
10:04 1030 30.42 859 25.37 -16.3 2.7 76 -19.6 -3.3 0 0
10:05 1030 30.42 859 25.37 -16.3 2.7 76 -19.5 -3.2 0 0
10:06 1030 30.42 859 25.37 -16.2 2.8 78 -19.3 -2.7 0 0
10:07 1030 30.42 859 25.37 -16 3.2 78 -18.9 -2.1 0 0
10:08 1030 30.42 859 25.37 -15.8 3.5 77 -19 -2.2 0 0
10:09 1030 30.42 859 25.37 -15.7 3.7 78 -18.8 -1.8 0 0
10:10 1030 30.42 859 25.37 -15.5 4.1 77 -18.7 -1.6 0 0
10:11 1030 30.42 859 25.37 -15.3 4.4 73 -19.2 -2.6 0 0
10:12 1030 30.42 859 25.37 -15.5 4.1 72 -19.5 -3.1 0 0
10:13 1030 30.42 859 25.37 -15.8 3.6 72 -19.7 -3.4 0 0
10:14 1030 30.42 859 25.37 -15.8 3.5 75 -19.4 -2.9 0 0
10:15 1030 30.42 859 25.37 -15.7 3.8 77 -18.9 -2 0 0
10:16 1030 30.42 859 25.37 -15.5 4 75 -19 -2.2 0 0
10:17 1030 30.42 859 25.37 -15.6 3.9 73 -19.5 -3 0 0
10:18 1030 30.42 859 25.37 -15.6 3.9 75 -19 -2.3 0 0
10:19 1030 30.42 859 25.37 -15.6 3.9 73 -19.4 -2.8 0 0
10:20 1030 30.42 859 25.37 -15.7 3.7 71 -19.8 -3.7 0 0
10:21 1030 30.42 859 25.37 -15.9 3.4 73 -19.7 -3.4 0 0
10:22 1030 30.42 859 25.37 -16 3.3 72 -19.9 -3.8 0 0
10:23 1030 30.42 859 25.37 -15.9 3.3 74 -19.6 -3.3 0 0
10:24 1030 30.42 859 25.37 -15.9 3.4 73 -19.7 -3.5 0 0
10:25 1030 30.42 859 25.37 -15.9 3.4 70 -20.1 -4.2 0 0
10:26 1030 30.42 859 25.37 -16.1 3 70 -20.4 -4.7 0 0
10:27 1030 30.42 859 25.37 -16 3.1 71 -20.1 -4.2 0 0
10:28 1030 30.42 859 25.37 -15.9 3.4 72 -19.8 -3.7 0 0
10:29 1030 30.42 859 25.37 -15.7 3.7 71 -19.8 -3.6 0 0
10:30 1030 30.42 859 25.37 -15.7 3.8 68 -20.4 -4.6 0 0
10:31 1030 30.42 859 25.37 -15.9 3.4 67 -20.7 -5.2 0 0
10:32 1030 30.42 859 25.37 -16 3.2 71 -20.2 -4.3 0 0
10:33 1030 30.42 859 25.37 -15.9 3.5 73 -19.7 -3.5 0 0
10:34 1030 30.42 859 25.37 -15.6 3.9 72 -19.6 -3.2 0 0
10:35 1030 30.42 859 25.37 -15.4 4.2 72 -19.4 -2.9 0 0
10:36 1030 30.42 859 25.37 -15.3 4.5 72 -19.2 -2.6 0 0
10:37 1030 30.42 859 25.37 -15.2 4.6 68 -19.9 -3.8 0 0
10:38 1030 30.42 859 25.37 -15.5 4.1 69 -20 -4 0 0
10:39 1030 30.42 859 25.37 -15.7 3.7 71 -19.8 -3.7 0 0
10:40 1030 30.42 859 25.37 -15.5 4.1 75 -19 -2.2 0 0
10:41 1030 30.42 859 25.37 -15.3 4.5 75 -18.8 -1.8 0 0
10:42 1030 30.42 859 25.37 -14.9 5.1 75 -18.4 -1.1 0 0
10:43 1030 30.42 859 25.37 -14.6 5.7 74 -18.3 -1 0 0
10:44 1030 30.42 859 25.37 -14.4 6.2 72 -18.4 -1 0 0
10:45 1030 30.42 859 25.37 -14.2 6.4 71 -18.3 -1 0 0
10:46 1030 30.42 859 25.37 -14.1 6.6 71 -18.3 -1 0 0
10:47 1030 30.42 859 25.37 -14.1 6.6 71 -18.3 -1 0 0
10:48 1030 30.42 859 25.37 -14 6.8 73 -17.8 -0 0 0
10:49 1030 30.42 859 25.37 -13.8 7.2 71 -17.9 -0.2 0 0
10:50 1030 30.42 859 25.37 -13.6 7.5 71 -17.9 -0.2 0 0
10:51 1030 30.42 859 25.37 -13.4 7.8 71 -17.6 0.3 0 0
10:52 1030 30.42 859 25.37 -13.3 8.1 69 -17.9 -0.2 0 0
10:53 1030 30.42 859 25.37 -13.2 8.3 69 -17.8 -0.1 0 0
10:54 1030 30.42 859 25.37 -13 8.5 69 -17.6 0.3 0 0
10:55 1030 30.42 859 25.37 -12.9 8.7 68 -17.6 0.3 0 0
10:56 1030 30.42 859 25.37 -12.8 9 69 -17.4 0.6 0 0
10:57 1030 30.42 859 25.37 -12.6 9.3 68 -17.3 0.9 0 0
10:58 1030 30.42 859 25.37 -12.4 9.7 67 -17.3 0.9 0 0
10:59 1030 30.42 859 25.37 -12.1 10.2 67 -17.1 1.1 0 0
11:00 1030 30.42 859 25.37 -11.8 10.7 66 -17 1.4 0 0
11:01 1030 30.42 859 25.37 -11.5 11.3 64 -16.9 1.5 0 0
11:02 1030 30.42 859 25.37 -11.2 11.8 62 -17 1.3 0 0
11:03 1030 30.42 859 25.37 -11 12.1 61 -17.2 1.1 0 0
11:04 1030 30.42 859 25.37 -11.2 11.9 60 -17.4 0.7 0 0
11:05 1030 30.42 859 25.37 -11.4 11.5 59 -17.8 -0 0 0
11:06 1030 30.42 859 25.37 -11.7 11 60 -18 -0.3 0 0
11:07 1030 30.42 859 25.37 -12 10.4 61 -18.1 -0.5 0 0
11:08 1030 30.42 859 25.37 -12.4 9.7 62 -18.2 -0.8 0 0
11:09 1030 30.42 859 25.37 -12.8 9 65 -18 -0.4 0 0
11:10 1030 30.42 859 25.37 -12.9 8.7 67 -17.8 -0.1 0 0
11:11 1030 30.42 859 25.37 -13 8.7 68 -17.7 0.1 0 0
11:12 1030 30.42 859 25.37 -12.9 8.9 68 -17.6 0.4 0 0
11:13 1030 30.42 859 25.37 -12.8 9.1 70 -17.2 1 0 0
11:14 1030 30.42 859 25.37 -12.6 9.4 69 -17.2 1 0 0
11:15 1030 30.42 859 25.37 -12.4 9.6 68 -17.2 1.1 0 0
11:16 1030 30.42 859 25.37 -12.3 10 68 -16.9 1.5 0 0
11:17 1030 30.42 859 25.37 -12 10.5 68 -16.7 2 0 0
11:18 1030 30.42 859 25.37 -11.6 11.1 68 -16.5 2.4 0 0
11:19 1030 30.42 859 25.37 -11.1 12 67 -16.2 2.9 0 0
11:20 1030 30.42 859 25.37 -10.7 12.8 64 -16.3 2.7 0 0
11:21 1030 30.42 859 25.37 -10.4 13.3 63 -16.2 2.8 0 0
11:22 1030 30.42 859 25.37 -10.4 13.3 63 -16.1 3 0 0
11:23 1030 30.42 859 25.37 -10.5 13.2 64 -16.1 3.1 0 0
11:24 1030 30.42 859 25.37 -10.7 12.8 63 -16.4 2.5 0 0
11:25 1030 30.42 859 25.37 -10.9 12.3 63 -16.7 2 0 0
11:26 1030 30.42 859 25.37 -11.4 11.5 65 -16.7 2 0 0
11:27 1030 30.42 859 25.37 -11.6 11.2 66 -16.8 1.8 0 0
11:28 1030 30.42 859 25.37 -11.7 11 66 -16.8 1.8 0 0
11:29 1030 30.42 859 25.37 -11.8 10.8 66 -16.8 1.7 0 0
11:30 1030 30.42 859 25.37 -11.8 10.7 67 -16.8 1.8 0 0
11:31 1030 30.42 859 25.37 -11.9 10.6 68 -16.6 2.1 0 0
11:32 1030 30.42 859 25.37 -11.9 10.6 69 -16.5 2.3 0 0
11:33 1030 30.42 859 25.37 -11.9 10.6 69 -16.5 2.4 0 0
11:34 1030 30.42 859 25.37 -11.9 10.5 69 -16.5 2.3 0 0
11:35 1030 30.42 859 25.37 -11.9 10.5 70 -16.4 2.5 0 0
11:36 1030 30.42 859 25.37 -12 10.5 71 -16.3 2.7 0 0
11:37 1030 30.42 859 25.37 -12 10.4 70 -16.4 2.5 0 0
11:38 1030 30.42 859 25.37 -12 10.4 71 -16.2 2.8 0 0
11:39 1030 30.42 859 25.37 -12 10.5 72 -16.1 3 0 0
11:40 1030 30.42 859 25.37 -11.9 10.7 70 -16.3 2.7 0 0
11:41 1030 30.42 859 25.37 -11.8 10.7 70 -16.3 2.7 0 0
11:42 1030 30.42 859 25.37 -11.8 10.7 71 -16.1 3.1 0 0
11:43 1030 30.42 859 25.37 -11.8 10.8 72 -15.9 3.4 0 0
11:44 1030 30.42 859 25.37 -11.7 10.9 72 -15.7 3.7 0 0
11:45 1030 30.42 859 25.37 -11.6 11.1 71 -15.9 3.4 0 0
11:46 1030 30.42 859 25.37 -11.6 11.1 71 -15.9 3.4 0 0
11:47 1030 30.42 859 25.37 -11.6 11.2 71 -15.8 3.5 0 0
11:48 1030 30.42 859 25.37 -11.6 11.2 72 -15.7 3.7 0 0
11:49 1030 30.42 859 25.37 -11.5 11.4 71 -15.7 3.7 0 0
11:50 1030 30.42 859 25.37 -11.3 11.7 70 -15.7 3.7 0 0
11:51 1030 30.42 859 25.37 -11.1 12 69 -15.7 3.7 0 0
11:52 1030 30.42 859 25.37 -11 12.3 68 -15.7 3.7 0 0
11:53 1030 30.42 859 25.37 -10.9 12.3 69 -15.6 3.9 0 0
11:54 1030 30.42 859 25.37 -10.9 12.5 68 -15.6 3.9 0 0
11:55 1030 30.42 859 25.37 -10.8 12.7 68 -15.6 3.9 0 0
11:56 1030 30.42 859 25.37 -10.7 12.7 67 -15.7 3.7 0 0
11:57 1030 30.42 859 25.37 -10.7 12.7 67 -15.7 3.8 0 0
11:58 1030 30.42 859 25.37 -10.7 12.7 67 -15.7 3.8 0 0
11:59 1030 30.42 859 25.37 -10.7 12.8 67 -15.6 3.9 0 0
12:00 1030 30.42 859 25.37 -10.6 12.8 67 -15.7 3.8 0 0
12:01 1030 30.42 859 25.37 -10.6 12.9 67 -15.6 3.9 0 0
12:02 1030 30.42 859 25.37 -10.5 13 67 -15.6 3.9 0 0
12:03 1030 30.42 859 25.37 -10.5 13 67 -15.6 3.9 0 0
12:04 1030 30.42 859 25.37 -10.4 13.2 67 -15.5 4.1 0 0
12:05 1030 30.42 859 25.37 -10.3 13.4 66 -15.5 4.1 0 0
12:06 1030 30.42 859 25.37 -10.2 13.6 66 -15.4 4.3 0 0
12:07 1030 30.42 859 25.37 -10.1 13.7 66 -15.4 4.3 0 0
12:08 1030 30.42 859 25.37 -10 14 65 -15.3 4.4 0 0
12:09 1030 30.42 859 25.37 -9.8 14.4 65 -15.3 4.5 0 0
12:10 1030 30.42 859 25.37 -9.6 14.6 63 -15.3 4.4 0 0
12:11 1030 30.42 859 25.37 -9.5 14.9 63 -15.3 4.5 0 0
12:12 1030 30.42 859 25.37 -9.5 14.9 63 -15.3 4.5 0 0
12:13 1030 30.42 859 25.37 -9.5 14.9 63 -15.4 4.4 0 0
12:14 1030 30.42 859 25.37 -9.5 14.9 62 -15.4 4.2 0 0
12:15 1030 30.42 859 25.37 -9.5 14.9 62 -15.5 4.1 0 0
12:16 1030 30.42 859 25.37 -9.5 14.8 63 -15.4 4.3 0 0
12:17 1030 30.42 859 25.37 -9.6 14.6 63 -15.4 4.2 0 0
12:18 1030 30.42 859 25.37 -9.7 14.6 63 -15.4 4.2 0 0
12:19 1030 30.42 859 25.37 -9.6 14.7 63 -15.4 4.2 0 0
12:20 1030 30.42 859 25.37 -9.5 14.8 62 -15.4 4.2 0 0
12:21 1030 30.42 859 25.37 -9.5 14.9 63 -15.4 4.3 0 0
12:22 1030 30.42 859 25.37 -9.5 14.9 63 -15.4 4.4 0 0
12:23 1030 30.42 859 25.37 -9.5 14.9 63 -15.4 4.4 0 0
12:24 1030 30.42 859 25.37 -9.5 14.8 63 -15.4 4.3 0 0
12:25 1030 30.42 859 25.37 -9.5 14.9 63 -15.3 4.4 0 0
12:26 1030 30.42 859 25.37 -9.5 14.9 63 -15.3 4.4 0 0
12:27 1030 30.42 859 25.37 -9.5 14.9 63 -15.3 4.4 0 0
12:28 1030 30.42 859 25.37 -9.6 14.8 63 -15.3 4.5 0 0
12:29 1030 30.42 859 25.37 -9.6 14.7 64 -15.3 4.4 0 0
12:30 1030 30.42 859 25.37 -9.6 14.8 64 -15.3 4.5 0 0
12:31 1030 30.42 859 25.37 -9.6 14.8 63 -15.3 4.4 0 0
12:32 1030 30.42 859 25.37 -9.5 14.8 63 -15.3 4.4 0 0
12:33 1030 30.42 859 25.37 -9.5 14.8 63 -15.3 4.4 0 0
12:34 1030 30.42 859 25.37 -9.5 14.9 63 -15.3 4.4 0 0
12:35 1030 30.42 859 25.37 -9.5 14.9 63 -15.4 4.3 0 0
12:36 1030 30.42 859 25.37 -9.5 14.9 63 -15.4 4.4 0 0
12:37 1030 30.42 859 25.37 -9.5 15 63 -15.4 4.3 0 0
12:38 1030 30.42 859 25.37 -9.5 15 63 -15.4 4.4 0 0
12:39 1030 30.42 859 25.37 -9.6 14.8 63 -15.4 4.3 0 0
12:40 1030 30.42 859 25.37 -9.7 14.5 63 -15.4 4.2 0 0
12:41 1030 30.42 859 25.37 -9.8 14.4 64 -15.4 4.3 0 0
12:42 1030 30.42 859 25.37 -9.9 14.3 64 -15.4 4.2 0 0
12:43 1030 30.42 859 25.37 -9.8 14.3 64 -15.4 4.3 0 0
12:44 1030 30.42 859 25.37 -9.9 14.3 64 -15.4 4.2 0 0
12:45 1030 30.42 859 25.37 -9.8 14.4 64 -15.4 4.2 0 0
12:46 1030 30.42 859 25.37 -9.7 14.5 63 -15.5 4.1 0 0
12:47 1030 30.42 859 25.37 -9.7 14.6 63 -15.5 4 0 0
12:48 1029 30.39 859 25.37 -9.8 14.5 63 -15.6 4 0 0
12:49 1029 30.39 859 25.37 -9.9 14.2 63 -15.6 3.9 0 0
12:50 1029 30.39 859 25.37 -10 14 64 -15.6 3.9 0 0
12:51 1029 30.39 859 25.37 -10.1 13.7 64 -15.6 3.9 0 0
12:52 1029 30.39 859 25.37 -10.2 13.6 65 -15.6 3.8 0 0
12:53 1029 30.39 859 25.37 -10.3 13.6 65 -15.6 3.9 0 0
12:54 1029 30.39 859 25.37 -10.3 13.5 65 -15.6 3.9 0 0
12:55 1029 30.39 859 25.37 -10.3 13.5 65 -15.6 3.9 0 0
12:56 1029 30.39 859 25.37 -10.3 13.4 65 -15.7 3.8 0 0
12:57 1029 30.39 859 25.37 -10.3 13.5 66 -15.6 4 0 0
12:58 1029 30.39 859 25.37 -10.2 13.6 65 -15.5 4.1 0 0
12:59 1029 30.39 859 25.37 -10.2 13.6 65 -15.6 4 0 0
13:00 1029 30.39 859 25.37 -10 13.9 65 -15.5 4.1 0 0
13:01 1029 30.39 859 25.37 -9.9 14.3 64 -15.4 4.2 0 0
13:02 1029 30.39 859 25.37 -9.7 14.6 63 -15.5 4.2 0 0
13:03 1029 30.39 858 25.34 -9.5 14.9 62 -15.4 4.2 0 0
13:04 1029 30.39 858 25.34 -9.3 15.4 61 -15.4 4.3 0 0
13:05 1029 30.39 858 25.34 -9 15.9 60 -15.3 4.4 0 0
13:06 1029 30.39 858 25.34 -8.6 16.5 59 -15.3 4.5 0 0
13:07 1029 30.39 858 25.34 -8.3 17 57 -15.3 4.5 0 0
13:08 1029 30.39 858 25.34 -8.1 17.5 56 -15.5 4.1 0 0
13:09 1029 30.39 858 25.34 -8.1 17.5 55 -15.7 3.7 0 0
13:10 1029 30.39 858 25.34 -8.4 16.8 56 -15.8 3.5 0 0
13:11 1029 30.39 858 25.34 -8.8 16.2 57 -15.9 3.4 0 0
13:12 1029 30.39 858 25.34 -9.2 15.4 59 -15.9 3.3 0 0
13:13 1029 30.39 858 25.34 -9.7 14.6 61 -15.9 3.3 0 0
13:14 1029 30.39 858 25.34 -10.1 13.9 63 -15.9 3.3 0 0
13:15 1029 30.39 859 25.37 -10.4 13.3 64 -16 3.2 0 0
13:16 1029 30.39 858 25.34 -10.6 13 65 -16 3.2 0 0
13:17 1029 30.39 859 25.37 -10.7 12.7 66 -16 3.3 0 0
13:18 1029 30.39 858 25.34 -10.8 12.5 66 -15.9 3.4 0 0
13:19 1029 30.39 858 25.34 -10.8 12.6 67 -15.8 3.5 0 0
13:20 1029 30.39 858 25.34 -10.8 12.6 66 -15.9 3.5 0 0
13:21 1029 30.39 858 25.34 -10.7 12.7 67 -15.8 3.6 0 0
13:22 1029 30.39 858 25.34 -10.6 12.9 67 -15.7 3.8 0 0
13:23 1029 30.39 858 25.34 -10.5 13.1 66 -15.6 3.9 0 0
13:24 1029 30.39 858 25.34 -10.5 13.2 66 -15.6 3.9 0 0
13:25 1029 30.39 858 25.34 -10.4 13.4 66 -15.6 4 0 0
13:26 1029 30.39 858 25.34 -10.3 13.5 66 -15.5 4.1 0 0
13:27 1029 30.39 858 25.34 -10.3 13.5 66 -15.5 4 0 0
13:28 1029 30.39 858 25.34 -10.3 13.6 64 -15.8 3.6 0 0
13:29 1029 30.39 858 25.34 -10.2 13.6 63 -15.9 3.4 0 0
13:30 1029 30.39 858 25.34 -10.2 13.7 64 -15.8 3.5 0 0
13:31 1029 30.39 858 25.34 -10.1 13.9 64 -15.6 4 0 0
13:32 1029 30.39 858 25.34 -9.9 14.2 64 -15.4 4.2 0 0
13:33 1029 30.39 858 25.34 -9.7 14.5 63 -15.4 4.2 0 0
13:34 1029 30.39 858 25.34 -9.7 14.6 63 -15.5 4.1 0 0
13:35 1029 30.39 858 25.34 -9.6 14.8 63 -15.4 4.2 0 0
13:36 1029 30.39 858 25.34 -9.5 14.9 62 -15.4 4.2 0 0
13:37 1029 30.39 858 25.34 -9.4 15.2 62 -15.4 4.3 0 0
13:38 1029 30.39 858 25.34 -9.2 15.5 61 -15.4 4.2 0 0
13:39 1029 30.39 858 25.34 -9 15.8 60 -15.4 4.4 0 0
13:40 1029 30.39 858 25.34 -8.8 16.2 60 -15.3 4.4 0 0
13:41 1029 30.39 858 25.34 -8.7 16.3 59 -15.4 4.3 0 0
13:42 1029 30.39 858 25.34 -8.7 16.3 59 -15.4 4.4 0 0
13:43 1029 30.39 858 25.34 -8.7 16.3 59 -15.5 4.2 0 0
13:44 1029 30.39 858 25.34 -8.8 16.2 59 -15.5 4.1 0 0
13:45 1029 30.39 858 25.34 -8.9 16 59 -15.5 4.1 0 0
13:46 1029 30.39 858 25.34 -8.9 15.9 59 -15.5 4.1 0 0
13:47 1029 30.39 858 25.34 -9 15.8 60 -15.5 4.2 0 0
13:48 1029 30.39 858 25.34 -9 15.9 60 -15.4 4.2 0 0
13:49 1029 30.39 858 25.34 -8.9 16.1 59 -15.4 4.2 0 0
13:50 1029 30.39 858 25.34 -8.7 16.3 58 -15.5 4.2 0 0
13:51 1029 30.39 858 25.34 -8.6 16.6 58 -15.4 4.3 0 0
13:52 1029 30.39 858 25.34 -8.4 17 58 -15.3 4.4 0 0
13:53 1029 30.39 858 25.34 -8.2 17.2 57 -15.3 4.5 0 0
13:54 1029 30.39 858 25.34 -8.2 17.3 58 -15.1 4.8 0 0
13:55 1029 30.39 858 25.34 -8.2 17.2 58 -15.1 4.8 0 0
13:56 1029 30.39 858 25.34 -8.3 17.1 59 -15.1 4.9 0 0
13:57 1029 30.39 858 25.34 -8.4 16.9 59 -15.1 4.8 0 0
13:58 1029 30.39 858 25.34 -8.4 16.9 59 -15.1 4.8 0 0
13:59 1029 30.39 858 25.34 -8.4 16.8 59 -15.1 4.8 0 0
14:00 1029 30.39 858 25.34 -8.4 16.8 59 -15.1 4.8 0 0
14:01 1029 30.39 858 25.34 -8.4 16.9 59 -15.1 4.8 0 0
14:02 1029 30.39 858 25.34 -8.3 17 58 -15.1 4.8 0 0
14:03 1029 30.39 858 25.34 -8.3 17.1 58 -15.2 4.7 0 0
14:04 1029 30.39 858 25.34 -8.3 17.1 58 -15.2 4.7 0 0
14:05 1029 30.39 858 25.34 -8.4 17 58 -15.2 4.6 0 0
14:06 1029 30.39 858 25.34 -8.5 16.7 58 -15.3 4.5 0 0
14:07 1029 30.39 858 25.34 -8.6 16.5 59 -15.2 4.7 0 0
14:08 1029 30.39 858 25.34 -8.8 16.3 60 -15.3 4.5 0 0
14:09 1029 30.39 858 25.34 -8.9 16 60 -15.2 4.6 0 0
14:10 1029 30.39 858 25.34 -9 15.8 61 -15.3 4.5 0 0
14:11 1029 30.39 858 25.34 -9.1 15.6 60 -15.4 4.2 0 0
14:12 1029 30.39 858 25.34 -9.2 15.4 61 -15.5 4.1 0 0
14:13 1029 30.39 858 25.34 -9.4 15.2 62 -15.4 4.3 0 0
14:14 1029 30.39 858 25.34 -9.4 15.1 62 -15.3 4.4 0 0
14:15 1029 30.39 858 25.34 -9.5 15 62 -15.4 4.3 0 0
14:16 1029 30.39 858 25.34 -9.5 15 63 -15.3 4.4 0 0
14:17 1029 30.39 858 25.34 -9.4 15 63 -15.3 4.5 0 0
14:18 1029 30.39 858 25.34 -9.5 14.9 63 -15.3 4.4 0 0
14:19 1029 30.39 858 25.34 -9.5 14.9 63 -15.3 4.4 0 0
14:20 1029 30.39 858 25.34 -9.4 15 63 -15.3 4.5 0 0
14:21 1029 30.39 858 25.34 -9.4 15 63 -15.3 4.4 0 0
14:22 1029 30.39 858 25.34 -9.3 15.2 62 -15.3 4.4 0 0
14:23 1029 30.39 858 25.34 -9.3 15.4 62 -15.3 4.5 0 0
14:24 1029 30.39 858 25.34 -9.3 15.3 62 -15.4 4.4 0 0
14:25 1029 30.39 858 25.34 -9.4 15.2 62 -15.3 4.4 0 0
14:26 1029 30.39 858 25.34 -9.5 14.9 63 -15.3 4.4 0 0
14:27 1029 30.39 858 25.34 -9.6 14.7 63 -15.4 4.3 0 0
14:28 1029 30.39 858 25.34 -9.7 14.6 63 -15.4 4.3 0 0
14:29 1029 30.39 858 25.34 -9.7 14.5 64 -15.4 4.3 0 0
14:30 1029 30.39 858 25.34 -9.7 14.6 63 -15.4 4.3 0 0
14:31 1029 30.39 858 25.34 -9.7 14.6 63 -15.4 4.3 0 0
14:32 1029 30.39 858 25.34 -9.6 14.7 63 -15.4 4.3 0 0
14:33 1029 30.39 858 25.34 -9.5 14.9 62 -15.4 4.3 0 0
14:34 1029 30.39 858 25.34 -9.5 15 63 -15.3 4.5 0 0
14:35 1029 30.39 858 25.34 -9.5 15 62 -15.4 4.2 0 0
14:36 1029 30.39 858 25.34 -9.5 14.9 63 -15.4 4.4 0 0
14:37 1029 30.39 858 25.34 -9.6 14.7 64 -15.3 4.5 0 0
14:38 1029 30.39 858 25.34 -9.6 14.6 64 -15.3 4.5 0 0
14:39 1029 30.39 858 25.34 -9.7 14.6 64 -15.3 4.4 0 0
14:40 1029 30.39 858 25.34 -9.7 14.5 64 -15.3 4.4 0 0
14:41 1029 30.39 859 25.37 -9.7 14.5 65 -15.2 4.6 0 0
14:42 1029 30.39 859 25.37 -9.7 14.6 65 -15.2 4.7 0 0
14:43 1029 30.39 859 25.37 -9.6 14.7 64 -15.2 4.7 0 0
14:44 1029 30.39 858 25.34 -9.5 14.9 64 -15.2 4.7 0 0
14:45 1029 30.39 858 25.34 -9.4 15.1 63 -15.1 4.8 0 0
14:46 1029 30.39 858 25.34 -9.3 15.3 63 -15.1 4.8 0 0
14:47 1029 30.39 858 25.34 -9.2 15.4 63 -15.1 4.8 0 0
14:48 1029 30.39 858 25.34 -9.2 15.5 62 -15.2 4.7 0 0
14:49 1029 30.39 858 25.34 -9.1 15.6 62 -15.2 4.7 0 0
14:50 1029 30.39 858 25.34 -9 15.8 61 -15.2 4.7 0 0
14:51 1029 30.39 858 25.34 -9.1 15.7 61 -15.2 4.6 0 0
14:52 1029 30.39 858 25.34 -9 15.7 61 -15.2 4.7 0 0
14:53 1029 30.39 858 25.34 -9.2 15.4 61 -15.5 4.1 0 0
14:54 1029 30.39 858 25.34 -9.5 14.9 62 -15.4 4.2 0 0
14:55 1029 30.39 858 25.34 -9.7 14.6 63 -15.5 4.1 0 0
14:56 1029 30.39 858 25.34 -9.8 14.4 64 -15.4 4.2 0 0
14:57 1029 30.39 858 25.34 -9.8 14.3 64 -15.4 4.3 0 0
14:58 1029 30.39 858 25.34 -9.8 14.3 64 -15.4 4.3 0 0
14:59 1029 30.39 858 25.34 -9.9 14.3 65 -15.3 4.4 0 0
15:00 1029 30.39 858 25.34 -9.9 14.3 65 -15.3 4.5 0 0
15:01 1029 30.39 858 25.34 -9.8 14.4 65 -15.3 4.5 0 0
15:02 1029 30.39 858 25.34 -9.7 14.5 64 -15.3 4.5 0 0
15:03 1029 30.39 858 25.34 -9.6 14.7 63 -15.4 4.3 0 0
15:04 1029 30.39 858 25.34 -9.6 14.8 63 -15.5 4.2 0 0
15:05 1029 30.39 858 25.34 -9.7 14.6 63 -15.4 4.2 0 0
15:06 1029 30.39 858 25.34 -9.7 14.5 64 -15.4 4.4 0 0
15:07 1029 30.39 858 25.34 -9.8 14.3 64 -15.4 4.4 0 0
15:08 1029 30.39 858 25.34 -9.9 14.2 64 -15.6 4 0 0
15:09 1029 30.39 858 25.34 -10 14.1 64 -15.5 4.1 0 0
15:10 1029 30.39 858 25.34 -10 13.9 65 -15.4 4.3 0 0
15:11 1029 30.39 858 25.34 -10 13.9 65 -15.4 4.2 0 0
15:12 1029 30.39 858 25.34 -10 13.9 65 -15.5 4.1 0 0
15:13 1029 30.39 858 25.34 -10.2 13.7 63 -16 3.1 0 0
15:14 1029 30.39 858 25.34 -10.6 12.8 63 -16.5 2.4 0 0
15:15 1029 30.39 858 25.34 -11.1 12 69 -15.8 3.6 0 0
15:16 1029 30.39 858 25.34 -11.1 12.1 69 -15.7 3.7 0 0
15:17 1029 30.39 858 25.34 -10.9 12.4 68 -15.6 3.8 0 0
15:18 1029 30.39 858 25.34 -10.6 12.9 67 -15.5 4 0 0
15:19 1029 30.39 858 25.34 -10.5 13.2 67 -15.5 4.1 0 0
15:20 1029 30.39 858 25.34 -10.3 13.5 66 -15.5 4.1 0 0
15:21 1029 30.39 859 25.37 -10.2 13.6 65 -15.5 4.1 0 0
15:22 1029 30.39 859 25.37 -10.1 13.8 64 -15.7 3.8 0 0
15:23 1029 30.39 859 25.37 -10.1 13.9 64 -15.6 3.9 0 0
15:24 1029 30.39 859 25.37 -10 14 64 -15.6 4 0 0
15:25 1029 30.39 859 25.37 -10 14 64 -15.6 3.9 0 0
15:26 1029 30.39 859 25.37 -10 14.1 64 -15.5 4 0 0
15:27 1029 30.39 859 25.37 -9.9 14.2 64 -15.5 4 0 0
15:28 1029 30.39 859 25.37 -9.9 14.2 63 -15.7 3.8 0 0
15:29 1029 30.39 859 25.37 -10 14 63 -15.8 3.6 0 0
15:30 1029 30.39 859 25.37 -10.2 13.7 64 -15.7 3.7 0 0
15:31 1029 30.39 859 25.37 -10.2 13.6 65 -15.7 3.7 0 0
15:32 1029 30.39 859 25.37 -10.3 13.5 65 -15.7 3.8 0 0
15:33 1029 30.39 859 25.37 -10.3 13.4 66 -15.6 3.9 0 0
15:34 1029 30.39 859 25.37 -10.3 13.4 65 -15.6 3.9 0 0
15:35 1029 30.39 859 25.37 -10.3 13.4 66 -15.6 4 0 0
15:36 1029 30.39 859 25.37 -10.4 13.3 66 -15.6 3.9 0 0
15:37 1029 30.39 859 25.37 -10.4 13.4 66 -15.5 4.1 0 0
15:38 1029 30.39 859 25.37 -10.3 13.4 66 -15.5 4.1 0 0
15:39 1029 30.39 859 25.37 -10.3 13.6 66 -15.5 4.2 0 0
15:40 1029 30.39 859 25.37 -10.2 13.6 66 -15.5 4.2 0 0
15:41 1029 30.39 859 25.37 -10.2 13.7 65 -15.5 4.1 0 0
15:42 1029 30.39 859 25.37 -10.2 13.7 65 -15.5 4.1 0 0
15:43 1029 30.39 859 25.37 -10.2 13.7 65 -15.5 4 0 0
15:44 1029 30.39 859 25.37 -10.2 13.7 65 -15.5 4.1 0 0
15:45 1029 30.39 859 25.37 -10.1 13.9 65 -15.4 4.2 0 0
15:46 1029 30.39 859 25.37 -9.9 14.1 65 -15.4 4.3 0 0
15:47 1029 30.39 859 25.37 -9.8 14.4 64 -15.3 4.4 0 0
15:48 1029 30.39 859 25.37 -9.7 14.5 64 -15.4 4.4 0 0
15:49 1029 30.39 859 25.37 -9.7 14.6 63 -15.4 4.3 0 0
15:50 1029 30.39 858 25.34 -9.6 14.6 64 -15.3 4.4 0 0
15:51 1029 30.39 858 25.34 -9.7 14.6 63 -15.4 4.3 0 0
15:52 1029 30.39 858 25.34 -9.8 14.4 64 -15.4 4.2 0 0
15:53 1029 30.39 858 25.34 -9.9 14.2 65 -15.4 4.3 0 0
15:54 1029 30.39 859 25.37 -10 13.9 65 -15.5 4.2 0 0
15:55 1029 30.39 858 25.34 -10.2 13.7 66 -15.4 4.2 0 0
15:56 1029 30.39 859 25.37 -10.3 13.5 66 -15.5 4.2 0 0
15:57 1029 30.39 858 25.34 -10.4 13.4 66 -15.6 3.9 0 0
15:58 1029 30.39 858 25.34 -10.5 13.2 66 -15.7 3.7 0 0
15:59 1029 30.39 858 25.34 -10.7 12.7 67 -15.7 3.7 0 0
16:00 1029 30.39 858 25.34 -10.8 12.5 68 -15.6 3.8 0 0
16:01 1029 30.39 858 25.34 -10.9 12.4 68 -15.7 3.8 0 0
16:02 1029 30.39 858 25.34 -10.9 12.4 69 -15.6 4 0 0
16:03 1029 30.39 858 25.34 -10.9 12.4 69 -15.6 4 0 0
16:04 1029 30.39 858 25.34 -10.8 12.6 68 -15.5 4 0 0
16:05 1029 30.39 858 25.34 -10.8 12.7 68 -15.5 4 0 0
16:06 1029 30.39 858 25.34 -10.7 12.7 68 -15.5 4.1 0 0
16:07 1029 30.39 858 25.34 -10.6 12.9 68 -15.4 4.2 0 0
16:08 1029 30.39 858 25.34 -10.6 12.9 68 -15.5 4.2 0 0
16:09 1029 30.39 858 25.34 -10.5 13 68 -15.4 4.2 0 0
16:10 1029 30.39 858 25.34 -10.6 13 68 -15.4 4.2 0 0
16:11 1029 30.39 858 25.34 -10.6 13 67 -15.5 4.2 0 0
16:12 1029 30.39 858 25.34 -10.6 12.9 68 -15.4 4.2 0 0
16:13 1029 30.39 858 25.34 -10.6 12.8 68 -15.5 4.1 0 0
16:14 1029 30.39 859 25.37 -10.7 12.7 68 -15.6 3.9 0 0
16:15 1029 30.39 859 25.37 -10.8 12.5 69 -15.5 4 0 0
16:16 1029 30.39 859 25.37 -11 12.2 69 -15.6 4 0 0
16:17 1029 30.39 859 25.37 -11.1 12 69 -15.7 3.8 0 0
16:18 1029 30.39 859 25.37 -11.1 11.9 70 -15.6 3.8 0 0
16:19 1029 30.39 859 25.37 -11.2 11.8 70 -15.7 3.8 0 0
16:20 1029 30.39 859 25.37 -11.3 11.6 70 -15.8 3.6 0 0
16:21 1029 30.39 859 25.37 -11.4 11.4 70 -15.8 3.5 0 0
16:22 1029 30.39 859 25.37 -11.5 11.4 71 -15.8 3.6 0 0
16:23 1029 30.39 859 25.37 -11.5 11.3 71 -15.8 3.6 0 0
16:24 1029 30.39 859 25.37 -11.5 11.3 71 -15.8 3.6 0 0
16:25 1029 30.39 859 25.37 -11.5 11.4 71 -15.8 3.6 0 0
16:26 1029 30.39 859 25.37 -11.5 11.3 71 -15.8 3.6 0 0
16:27 1029 30.39 859 25.37 -11.5 11.2 71 -15.8 3.6 0 0
16:28 1029 30.39 859 25.37 -11.6 11.2 71 -15.9 3.5 0 0
16:29 1029 30.39 859 25.37 -11.6 11.2 71 -15.8 3.5 0 0
16:30 1029 30.39 859 25.37 -11.7 11 71 -15.9 3.3 0 0
16:31 1029 30.39 859 25.37 -11.7 10.9 71 -16 3.3 0 0
16:32 1029 30.39 859 25.37 -11.7 10.9 71 -16 3.2 0 0
16:33 1029 30.39 859 25.37 -11.8 10.8 71 -16 3.2 0 0
16:34 1029 30.39 859 25.37 -11.9 10.7 71 -16.1 3.1 0 0
16:35 1029 30.39 859 25.37 -11.9 10.5 71 -16.1 3 0 0
16:36 1029 30.39 859 25.37 -12 10.3 72 -16.1 3 0 0
16:37 1029 30.39 859 25.37 -12.1 10.1 72 -16.2 2.9 0 0
16:38 1029 30.39 859 25.37 -12.2 10.1 72 -16.2 2.8 0 0
16:39 1029 30.39 859 25.37 -12.2 10 72 -16.3 2.7 0 0
16:40 1029 30.39 859 25.37 -12.3 9.8 72 -16.4 2.5 0 0
16:41 1030 30.42 859 25.37 -12.4 9.6 73 -16.4 2.6 0 0
16:42 1029 30.39 859 25.37 -12.5 9.5 73 -16.4 2.5 0 0
16:43 1029 30.39 859 25.37 -12.6 9.3 74 -16.4 2.4 0 0
16:44 1030 30.42 859 25.37 -12.7 9.1 74 -16.4 2.4 0 0
16:45 1030 30.42 859 25.37 -12.8 9 74 -16.4 2.5 0 0
16:46 1030 30.42 859 25.37 -12.8 9 75 -16.3 2.6 0 0
16:47 1030 30.42 859 25.37 -12.8 9.1 75 -16.3 2.7 0 0
16:48 1030 30.42 859 25.37 -12.7 9.1 73 -16.7 1.9 0 0
16:49 1030 30.42 859 25.37 -13 8.5 72 -17.1 1.3 0 0
16:50 1030 30.42 859 25.37 -13.3 8.1 74 -16.9 1.5 0 0
16:51 1030 30.42 859 25.37 -13.4 7.9 76 -16.8 1.8 0 0
16:52 1030 30.42 859 25.37 -13.4 8 77 -16.6 2 0 0
16:53 1029 30.39 859 25.37 -13.3 8 77 -16.6 2.1 0 0
16:54 1029 30.39 859 25.37 -13.3 8.2 77 -16.5 2.3 0 0
16:55 1029 30.39 859 25.37 -13.2 8.3 77 -16.4 2.4 0 0
16:56 1029 30.39 859 25.37 -13.1 8.5 77 -16.4 2.5 0 0
16:57 1029 30.39 859 25.37 -13 8.6 76 -16.3 2.6 0 0
16:58 1029 30.39 859 25.37 -12.9 8.7 76 -16.3 2.7 0 0
16:59 1029 30.39 859 25.37 -12.9 8.8 76 -16.3 2.6 0 0
17:00 1029 30.39 859 25.37 -12.9 8.8 76 -16.4 2.5 0 0
17:01 1029 30.39 859 25.37 -12.9 8.8 76 -16.4 2.6 0 0
17:02 1029 30.39 859 25.37 -13 8.6 76 -16.4 2.5 0 0
17:03 1029 30.39 859 25.37 -13.1 8.5 76 -16.4 2.5 0 0
17:04 1029 30.39 859 25.37 -13.1 8.4 76 -16.5 2.3 0 0
17:05 1029 30.39 859 25.37 -13.2 8.3 76 -16.5 2.4 0 0
17:06 1029 30.39 859 25.37 -13.3 8.2 76 -16.6 2.1 0 0
17:07 1029 30.39 859 25.37 -13.4 7.9 75 -16.9 1.7 0 0
17:08 1030 30.42 859 25.37 -13.8 7.3 75 -17.2 1 0 0
17:09 1030 30.42 859 25.37 -14 6.7 73 -17.9 -0.2 0 0
17:10 1030 30.42 859 25.37 -14.7 5.6 73 -18.5 -1.3 0 0
17:11 1030 30.42 859 25.37 -15 4.9 80 -17.7 0.1 0 0
17:12 1030 30.42 859 25.37 -14.9 5.1 83 -17.2 1 0 0
17:13 1030 30.42 859 25.37 -14.5 5.9 85 -16.5 2.3 0 0
17:14 1030 30.42 859 25.37 -14 6.8 83 -16.3 2.6 0 0
17:15 1030 30.42 859 25.37 -13.7 7.3 81 -16.3 2.7 0 0
17:16 1030 30.42 859 25.37 -13.5 7.7 81 -16.1 2.9 0 0
17:17 1030 30.42 859 25.37 -13.3 8 80 -16.1 3 0 0
17:18 1030 30.42 859 25.37 -13.2 8.2 80 -16 3.2 0 0
17:19 1030 30.42 859 25.37 -13.1 8.3 79 -16 3.2 0 0
17:20 1030 30.42 859 25.37 -13.2 8.3 68 -17.8 -0.1 0 0
17:21 1030 30.42 859 25.37 -13.9 6.9 74 -17.6 0.4 0 0
17:22 1029 30.39 859 25.37 -14.2 6.4 79 -17.2 1.1 0 0
17:23 1030 30.42 859 25.37 -14.2 6.4 80 -16.9 1.6 0 0
17:24 1029 30.39 859 25.37 -14.1 6.6 81 -16.8 1.8 0 0
17:25 1029 30.39 859 25.37 -14 6.7 82 -16.5 2.3 0 0
17:26 1029 30.39 859 25.37 -13.8 7.1 81 -16.4 2.4 0 0
17:27 1030 30.42 859 25.37 -13.9 7 74 -17.6 0.4 0 0
17:28 1030 30.42 859 25.37 -14.2 6.5 78 -17.2 1 0 0
17:29 1030 30.42 859 25.37 -14.2 6.5 80 -16.8 1.7 0 0
17:30 1030 30.42 859 25.37 -14 6.8 81 -16.6 2.1 0 0
17:31 1030 30.42 859 25.37 -13.8 7.1 81 -16.5 2.3 0 0
17:32 1030 30.42 859 25.37 -13.9 6.9 68 -18.6 -1.5 0 0
17:33 1030 30.42 859 25.37 -14.7 5.5 71 -18.9 -1.9 0 0
17:34 1030 30.42 859 25.37 -15.2 4.7 77 -18.4 -1.1 0 0
17:35 1030 30.42 859 25.37 -15.5 4 75 -19 -2.3 0 0
17:36 1030 30.42 859 25.37 -16 3.2 77 -19.2 -2.6 0 0
17:37 1030 30.42 859 25.37 -16.2 2.8 82 -18.6 -1.5 0 0
17:38 1030 30.42 859 25.37 -16.2 2.9 82 -18.6 -1.4 0 0
17:39 1030 30.42 859 25.37 -16.1 3 82 -18.6 -1.4 0 0
17:40 1030 30.42 859 25.37 -16.2 2.9 85 -18.2 -0.7 0 0
17:41 1030 30.42 859 25.37 -15.8 3.6 88 -17.4 0.7 0 0
17:42 1030 30.42 859 25.37 -15.3 4.4 87 -17 1.4 0 0
17:43 1030 30.42 859 25.37 -14.9 5.3 87 -16.5 2.3 0 0
17:44 1030 30.42 859 25.37 -14.4 6.2 87 -16.1 2.9 0 0
17:45 1030 30.42 859 25.37 -13.9 6.9 85 -15.9 3.4 0 0
17:46 1030 30.42 859 25.37 -13.6 7.6 84 -15.8 3.6 0 0
17:47 1030 30.42 859 25.37 -13.3 8 82 -15.8 3.6 0 0
17:48 1029 30.39 859 25.37 -13.1 8.4 81 -15.7 3.7 0 0
17:49 1029 30.39 859 25.37 -12.9 8.7 80 -15.7 3.7 0 0
17:50 1029 30.39 859 25.37 -12.8 9 79 -15.8 3.6 0 0
17:51 1029 30.39 859 25.37 -12.8 8.9 77 -16.1 3 0 0
17:52 1029 30.39 859 25.37 -13.5 7.7 62 -19.4 -3 0 0
17:53 1029 30.39 859 25.37 -15.2 4.6 64 -20.7 -5.2 0 0
17:54 1029 30.39 859 25.37 -16.5 2.3 72 -20.4 -4.8 0 0
17:55 1029 30.39 859 25.37 -16.9 1.6 81 -19.4 -2.9 0 0
17:56 1029 30.39 859 25.37 -17 1.5 79 -19.8 -3.6 0 0
17:57 1029 30.39 859 25.37 -17.4 0.6 76 -20.6 -5.1 0 0
17:58 1029 30.39 859 25.37 -17.9 -0.3 79 -20.8 -5.4 0 0
17:59 1029 30.39 859 25.37 -17.8 -0 88 -19.4 -2.9 0 0
18:00 1029 30.39 859 25.37 -16.9 1.6 92 -18 -0.3 0 0
18:01 1029 30.39 859 25.37 -16.1 3.1 91 -17.2 1 0 0
18:02 1029 30.39 859 25.37 -15.6 3.9 89 -17 1.4 0 0
18:03 1029 30.39 859 25.37 -15.1 4.9 89 -16.4 2.4 0 0
18:04 1029 30.39 859 25.37 -14.5 5.9 88 -16.1 3.1 0 0
18:05 1029 30.39 859 25.37 -14.2 6.5 85 -16.2 2.9 0 0
18:06 1029 30.39 858 25.34 -14.4 6 78 -17.5 0.5 0 0
18:07 1029 30.39 858 25.34 -15.1 4.9 75 -18.6 -1.5 0 0
18:08 1029 30.39 858 25.34 -15.9 3.4 74 -19.5 -3.1 0 0
18:09 1029 30.39 858 25.34 -16.1 3 85 -18 -0.5 0 0
18:10 1029 30.39 859 25.37 -15.7 3.7 88 -17.2 1 0 0
18:11 1029 30.39 859 25.37 -15.3 4.6 88 -16.8 1.8 0 0
18:12 1029 30.39 859 25.37 -14.9 5.2 85 -16.9 1.6 0 0
18:13 1029 30.39 859 25.37 -15.8 3.5 64 -21.1 -6 0 0
18:14 1029 30.39 859 25.37 -17.4 0.7 69 -21.8 -7.2 0 0
18:15 1029 30.39 859 25.37 -18.4 -1.1 74 -22 -7.6 0 0
18:16 1029 30.39 859 25.37 -19 -2.2 76 -22.2 -7.9 0 0
18:17 1029 30.39 859 25.37 -19.4 -2.9 78 -22.3 -8.1 0 0
18:18 1029 30.39 859 25.37 -19.7 -3.4 78 -22.6 -8.6 0 0
18:19 1029 30.39 859 25.37 -20.1 -4.1 78 -23.1 -9.5 0 0
18:20 1029 30.39 859 25.37 -20.5 -4.8 78 -23.4 -10.1 0 0
18:21 1029 30.39 859 25.37 -20.8 -5.4 78 -23.6 -10.5 0 0
18:22 1029 30.39 859 25.37 -21 -5.8 80 -23.7 -10.6 0 0
18:23 1029 30.39 859 25.37 -21.1 -5.9 82 -23.4 -10.1 0 0
18:24 1029 30.39 859 25.37 -20.9 -5.7 84 -22.9 -9.2 0 0
18:25 1029 30.39 859 25.37 -20.8 -5.4 84 -22.7 -8.9 0 0
18:26 1029 30.39 859 25.37 -20.6 -5.1 86 -22.4 -8.3 0 0
18:27 1029 30.39 859 25.37 -20.3 -4.6 87 -22 -7.7 0 0
18:28 1029 30.39 859 25.37 -20.2 -4.3 86 -22 -7.6 0 0
18:29 1029 30.39 858 25.34 -20.1 -4.1 86 -21.9 -7.4 0 0
18:30 1029 30.39 859 25.37 -20.1 -4.2 83 -22.3 -8.1 0 0
18:31 1029 30.39 859 25.37 -20.1 -4.2 84 -22.1 -7.8 0 0
18:32 1029 30.39 859 25.37 -20.1 -4.1 85 -22 -7.5 0 0
18:33 1029 30.39 859 25.37 -20.1 -4.1 84 -22.1 -7.8 0 0
18:34 1029 30.39 859 25.37 -20.1 -4.2 83 -22.3 -8.1 0 0
18:35 1029 30.39 859 25.37 -20.1 -4.2 84 -22.2 -7.9 0 0
18:36 1029 30.39 859 25.37 -20 -4 87 -21.7 -7 0 0
18:37 1029 30.39 858 25.34 -19.5 -3.1 91 -20.6 -5.1 0 0
18:38 1029 30.39 858 25.34 -18.5 -1.3 94 -19.2 -2.6 0 0
18:39 1029 30.39 858 25.34 -17.5 0.5 94 -18.2 -0.8 0 0
18:40 1029 30.39 858 25.34 -17.1 1.2 92 -18.1 -0.5 0 0
18:41 1029 30.39 858 25.34 -16.8 1.8 89 -18.1 -0.6 0 0
18:42 1029 30.39 858 25.34 -17 1.3 83 -19.3 -2.7 0 0
18:43 1029 30.39 858 25.34 -17.5 0.5 80 -20.2 -4.4 0 0
18:44 1029 30.39 858 25.34 -18 -0.4 81 -20.6 -5.1 0 0
18:45 1029 30.39 858 25.34 -18 -0.5 86 -19.9 -3.8 0 0
18:46 1029 30.39 858 25.34 -17.6 0.3 90 -18.9 -2 0 0
18:47 1029 30.39 859 25.37 -17.3 1 89 -18.7 -1.6 0 0
18:48 1029 30.39 859 25.37 -17.4 0.7 83 -19.7 -3.5 0 0
18:49 1029 30.39 858 25.34 -18 -0.4 81 -20.5 -4.9 0 0
18:50 1029 30.39 858 25.34 -18.1 -0.7 86 -19.9 -3.8 0 0
18:51 1029 30.39 859 25.37 -17.5 0.5 91 -18.6 -1.5 0 0
18:52 1029 30.39 859 25.37 -17.3 0.8 84 -19.4 -3 0 0
18:53 1029 30.39 859 25.37 -18.1 -0.6 80 -20.8 -5.5 0 0
18:54 1029 30.39 859 25.37 -18.5 -1.2 83 -20.7 -5.3 0 0
18:55 1029 30.39 859 25.37 -18.6 -1.5 84 -20.8 -5.4 0 0
18:56 1029 30.39 858 25.34 -18.8 -1.8 83 -21 -5.8 0 0
18:57 1029 30.39 858 25.34 -19.1 -2.4 82 -21.5 -6.7 0 0
18:58 1029 30.39 858 25.34 -19.4 -3 81 -22 -7.6 0 0
18:59 1029 30.39 858 25.34 -19.9 -3.7 82 -22.2 -8 0 0
19:00 1029 30.39 858 25.34 -19.6 -3.3 87 -21.3 -6.4 0 0
19:01 1029 30.39 858 25.34 -19.2 -2.5 89 -20.6 -5.1 0 0
19:02 1029 30.39 858 25.34 -19 -2.3 86 -20.8 -5.4 0 0
19:03 1029 30.39 858 25.34 -19.2 -2.5 84 -21.3 -6.3 0 0
19:04 1029 30.39 858 25.34 -19.3 -2.7 85 -21.2 -6.1 0 0
19:05 1029 30.39 858 25.34 -19.3 -2.8 84 -21.4 -6.5 0 0
19:06 1029 30.39 858 25.34 -19.6 -3.2 82 -21.9 -7.5 0 0
19:07 1029 30.39 858 25.34 -20 -4.1 79 -22.8 -9.1 0 0
19:08 1029 30.39 858 25.34 -20.5 -4.9 80 -23.1 -9.5 0 0
19:09 1029 30.39 858 25.34 -20.7 -5.2 82 -22.9 -9.2 0 0
19:10 1029 30.39 858 25.34 -20.8 -5.4 82 -23 -9.5 0 0
19:11 1029 30.39 858 25.34 -20.9 -5.7 82 -23.3 -9.9 0 0
19:12 1029 30.39 858 25.34 -21 -5.9 82 -23.3 -9.9 0 0
19:13 1029 30.39 858 25.34 -21.1 -5.9 83 -23.3 -10 0 0
19:14 1029 30.39 858 25.34 -21.1 -5.9 84 -23.1 -9.6 0 0
19:15 1029 30.39 858 25.34 -21 -5.8 83 -23.1 -9.7 0 0
19:16 1029 30.39 858 25.34 -21.2 -6.2 81 -23.6 -10.5 0 0
19:17 1029 30.39 858 25.34 -21.3 -6.3 83 -23.4 -10 0 0
19:18 1029 30.39 858 25.34 -21 -5.7 86 -22.7 -8.9 0 0
19:19 1029 30.39 858 25.34 -20.6 -5 88 -22.1 -7.7 0 0
19:20 1029 30.39 858 25.34 -20 -4.1 90 -21.3 -6.4 0 0
19:21 1029 30.39 858 25.34 -19.3 -2.7 92 -20.3 -4.5 0 0
19:22 1029 30.39 858 25.34 -18.7 -1.6 91 -19.8 -3.6 0 0
19:23 1029 30.39 858 25.34 -18.5 -1.2 89 -19.9 -3.8 0 0
19:24 1029 30.39 858 25.34 -18.6 -1.4 85 -20.5 -5 0 0
19:25 1029 30.39 858 25.34 -18.7 -1.6 83 -20.9 -5.6 0 0
19:26 1029 30.39 858 25.34 -18.9 -2.1 83 -21.1 -6.1 0 0
19:27 1029 30.39 858 25.34 -19.1 -2.4 82 -21.4 -6.6 0 0
19:28 1029 30.39 858 25.34 -19.3 -2.7 84 -21.3 -6.3 0 0
19:29 1029 30.39 858 25.34 -19.2 -2.5 85 -21.1 -5.9 0 0
19:30 1029 30.39 858 25.34 -19.1 -2.4 85 -21.1 -5.9 0 0
19:31 1029 30.39 858 25.34 -19.3 -2.7 83 -21.5 -6.7 0 0
19:32 1029 30.39 858 25.34 -19.4 -2.9 84 -21.5 -6.7 0 0
19:33 1029 30.39 858 25.34 -19.4 -2.8 85 -21.3 -6.3 0 0
19:34 1029 30.39 858 25.34 -19.3 -2.8 85 -21.3 -6.3 0 0
19:35 1029 30.39 858 25.34 -19.3 -2.7 86 -21.1 -6 0 0
19:36 1029 30.39 858 25.34 -19.1 -2.4 86 -20.9 -5.7 0 0
19:37 1029 30.39 858 25.34 -19 -2.2 86 -20.8 -5.5 0 0
19:38 1029 30.39 858 25.34 -18.9 -2.1 85 -20.9 -5.6 0 0
19:39 1029 30.39 858 25.34 -18.9 -2 86 -20.8 -5.4 0 0
19:40 1029 30.39 858 25.34 -18.8 -1.8 86 -20.6 -5.1 0 0
19:41 1029 30.39 858 25.34 -18.7 -1.7 85 -20.7 -5.2 0 0
19:42 1029 30.39 858 25.34 -18.7 -1.6 85 -20.6 -5.2 0 0
19:43 1029 30.39 858 25.34 -18.8 -1.8 83 -21 -5.8 0 0
19:44 1029 30.39 858 25.34 -19.1 -2.3 81 -21.6 -6.9 0 0
19:45 1029 30.39 858 25.34 -19.2 -2.5 84 -21.2 -6.2 0 0
19:46 1029 30.39 858 25.34 -19.2 -2.5 83 -21.3 -6.4 0 0
19:47 1029 30.39 858 25.34 -19.3 -2.8 82 -21.6 -7 0 0
19:48 1029 30.39 858 25.34 -19.5 -3.1 82 -21.9 -7.4 0 0
19:49 1029 30.39 858 25.34 -19.7 -3.4 82 -22 -7.6 0 0
19:50 1029 30.39 858 25.34 -19.6 -3.3 84 -21.7 -7 0 0
19:51 1029 30.39 858 25.34 -19.6 -3.3 83 -21.7 -7.1 0 0
19:52 1029 30.39 858 25.34 -19.7 -3.5 82 -22.1 -7.7 0 0
19:53 1029 30.39 858 25.34 -19.8 -3.6 83 -22 -7.6 0 0
19:54 1029 30.39 858 25.34 -19.8 -3.7 83 -22 -7.7 0 0
19:55 1029 30.39 858 25.34 -19.9 -3.8 83 -22.1 -7.8 0 0
19:56 1029 30.39 858 25.34 -20 -4.1 81 -22.5 -8.4 0 0
19:57 1029 30.39 858 25.34 -20.3 -4.5 81 -22.7 -8.9 0 0
19:58 1029 30.39 858 25.34 -20.2 -4.3 85 -22 -7.6 0 0
19:59 1029 30.39 858 25.34 -19.8 -3.7 87 -21.5 -6.7 0 0
20:00 1029 30.39 858 25.34 -19.6 -3.2 86 -21.3 -6.4 0 0
20:01 1029 30.39 858 25.34 -19.4 -2.9 86 -21.3 -6.3 0 0
20:02 1029 30.39 858 25.34 -19.5 -3 82 -21.8 -7.2 0 0
20:03 1029 30.39 858 25.34 -19.9 -3.8 79 -22.6 -8.7 0 0
20:04 1029 30.39 858 25.34 -20.3 -4.5 80 -22.9 -9.2 0 0
20:05 1029 30.39 858 25.34 -20.3 -4.5 83 -22.5 -8.5 0 0
20:06 1029 30.39 858 25.34 -20.5 -4.9 80 -23.2 -9.7 0 0
20:07 1029 30.39 858 25.34 -20.9 -5.5 80 -23.5 -10.3 0 0
20:08 1029 30.39 858 25.34 -20.9 -5.7 81 -23.3 -10 0 0
20:09 1029 30.39 858 25.34 -21.1 -6 81 -23.6 -10.5 0 0
20:10 1029 30.39 858 25.34 -21.1 -6 83 -23.3 -10 0 0
20:11 1029 30.39 858 25.34 -21 -5.7 85 -22.9 -9.2 0 0
20:12 1029 30.39 858 25.34 -20.5 -4.9 88 -22.1 -7.7 0 0
20:13 1029 30.39 858 25.34 -20.3 -4.5 85 -22.3 -8.1 0 0
20:14 1029 30.39 858 25.34 -20.4 -4.8 83 -22.6 -8.8 0 0
20:15 1029 30.39 858 25.34 -20.2 -4.3 86 -21.9 -7.5 0 0
20:16 1029 30.39 858 25.34 -19.9 -3.9 85 -21.8 -7.2 0 0
20:17 1029 30.39 858 25.34 -19.8 -3.6 85 -21.6 -6.9 0 0
20:18 1029 30.39 858 25.34 -19.5 -3.1 87 -21.1 -6.1 0 0
20:19 1029 30.39 858 25.34 -19.3 -2.8 85 -21.2 -6.2 0 0
20:20 1029 30.39 858 25.34 -19.1 -2.5 86 -21 -5.8 0 0
20:21 1029 30.39 858 25.34 -19.2 -2.6 82 -21.5 -6.7 0 0
20:22 1029 30.39 858 25.34 -19.4 -2.9 83 -21.6 -6.8 0 0
20:23 1029 30.39 858 25.34 -19.4 -2.9 84 -21.5 -6.6 0 0
20:24 1029 30.39 858 25.34 -19.3 -2.8 84 -21.3 -6.4 0 0
20:25 1029 30.39 858 25.34 -19.3 -2.7 84 -21.3 -6.3 0 0
20:26 1029 30.39 858 25.34 -19.2 -2.5 85 -21 -5.9 0 0
20:27 1029 30.39 858 25.34 -18.9 -2 86 -20.7 -5.2 0 0
20:28 1029 30.39 858 25.34 -18.8 -1.8 84 -20.9 -5.6 0 0
20:29 1029 30.39 858 25.34 -18.9 -1.9 84 -21 -5.8 0 0
20:30 1029 30.39 858 25.34 -18.8 -1.8 85 -20.7 -5.3 0 0
20:31 1029 30.39 858 25.34 -18.7 -1.6 84 -20.7 -5.3 0 0
20:32 1029 30.39 858 25.34 -18.7 -1.6 83 -20.9 -5.6 0 0
20:33 1029 30.39 858 25.34 -18.8 -1.9 82 -21.2 -6.2 0 0
20:34 1029 30.39 858 25.34 -18.9 -2.1 83 -21.2 -6.1 0 0
20:35 1029 30.39 858 25.34 -18.9 -2 83 -21.1 -5.9 0 0
20:36 1029 30.39 858 25.34 -19 -2.1 83 -21.2 -6.2 0 0
20:37 1029 30.39 858 25.34 -19 -2.1 84 -21.1 -5.9 0 0
20:38 1029 30.39 858 25.34 -18.9 -2 85 -20.9 -5.6 0 0
20:39 1029 30.39 858 25.34 -18.8 -1.8 84 -20.9 -5.5 0 0
20:40 1029 30.39 858 25.34 -18.8 -1.8 83 -21 -5.8 0 0
20:41 1029 30.39 858 25.34 -18.8 -1.8 84 -20.9 -5.6 0 0
20:42 1029 30.39 858 25.34 -18.8 -1.8 83 -21 -5.7 0 0
20:43 1029 30.39 858 25.34 -18.9 -2 81 -21.3 -6.3 0 0
20:44 1029 30.39 858 25.34 -19.1 -2.5 80 -21.8 -7.2 0 0
20:45 1029 30.39 858 25.34 -19.3 -2.7 83 -21.5 -6.6 0 0
20:46 1029 30.39 858 25.34 -19.1 -2.4 84 -21.2 -6.1 0 0
20:47 1029 30.39 858 25.34 -19.1 -2.4 82 -21.4 -6.6 0 0
20:48 1029 30.39 858 25.34 -19.3 -2.7 81 -21.7 -7.1 0 0
20:49 1029 30.39 858 25.34 -19.3 -2.8 83 -21.6 -6.8 0 0
20:50 1029 30.39 858 25.34 -19.4 -2.9 82 -21.7 -7 0 0
20:51 1029 30.39 858 25.34 -19.3 -2.8 83 -21.5 -6.8 0 0
20:52 1029 30.39 858 25.34 -19.3 -2.7 84 -21.4 -6.5 0 0
20:53 1029 30.39 858 25.34 -19.2 -2.6 83 -21.4 -6.5 0 0
20:54 1029 30.39 858 25.34 -19.3 -2.7 82 -21.6 -6.9 0 0
20:55 1029 30.39 858 25.34 -19.4 -2.8 80 -22 -7.6 0 0
20:56 1029 30.39 858 25.34 -19.8 -3.7 78 -22.7 -8.8 0 0
20:57 1029 30.39 858 25.34 -20.1 -4.2 78 -23 -9.4 0 0
20:58 1029 30.39 858 25.34 -20.5 -5 77 -23.5 -10.4 0 0
20:59 1029 30.39 858 25.34 -20.6 -5.1 82 -22.9 -9.2 0 0
21:00 1029 30.39 858 25.34 -20.3 -4.5 87 -22 -7.5 0 0
21:01 1029 30.39 858 25.34 -19.5 -3.2 89 -21 -5.7 0 0
21:02 1029 30.39 858 25.34 -19 -2.2 88 -20.6 -5 0 0
21:03 1029 30.39 858 25.34 -18.8 -1.8 86 -20.6 -5.2 0 0
21:04 1029 30.39 858 25.34 -18.5 -1.4 85 -20.5 -4.8 0 0
21:05 1029 30.39 858 25.34 -18.5 -1.3 83 -20.7 -5.2 0 0
21:06 1029 30.39 858 25.34 -18.6 -1.4 82 -21 -5.8 0 0
21:07 1029 30.39 858 25.34 -18.7 -1.7 82 -21.1 -5.9 0 0
21:08 1029 30.39 858 25.34 -18.7 -1.6 82 -21.1 -5.9 0 0
21:09 1029 30.39 858 25.34 -19 -2.1 80 -21.7 -7 0 0
21:10 1029 30.39 858 25.34 -19.2 -2.5 81 -21.7 -7.1 0 0
21:11 1029 30.39 858 25.34 -19.2 -2.5 82 -21.5 -6.6 0 0
21:12 1029 30.39 858 25.34 -19 -2.3 84 -21.1 -6 0 0
21:13 1029 30.39 858 25.34 -18.6 -1.5 87 -20.2 -4.4 0 0
21:14 1029 30.39 858 25.34 -18 -0.5 88 -19.6 -3.3 0 0
21:15 1029 30.39 858 25.34 -18 -0.4 81 -20.6 -5 0 0
21:16 1029 30.39 858 25.34 -18.4 -1.1 80 -21 -5.8 0 0
21:17 1029 30.39 858 25.34 -18.5 -1.3 81 -21 -5.9 0 0
21:18 1029 30.39 858 25.34 -18.7 -1.6 82 -21 -5.9 0 0
21:19 1029 30.39 858 25.34 -18.6 -1.5 82 -20.9 -5.6 0 0
21:20 1029 30.39 858 25.34 -18.6 -1.5 82 -21 -5.8 0 0
21:21 1029 30.39 858 25.34 -18.8 -1.9 79 -21.6 -6.9 0 0
21:22 1029 30.39 858 25.34 -19.1 -2.4 80 -21.7 -7.1 0 0
21:23 1029 30.39 858 25.34 -19.2 -2.6 81 -21.7 -7.1 0 0
21:24 1029 30.39 858 25.34 -19.3 -2.7 82 -21.7 -7 0 0
21:25 1029 30.39 858 25.34 -19.3 -2.7 82 -21.6 -6.9 0 0
21:26 1029 30.39 858 25.34 -19.2 -2.6 83 -21.4 -6.5 0 0
21:27 1029 30.39 858 25.34 -19.1 -2.4 82 -21.4 -6.5 0 0
21:28 1029 30.39 858 25.34 -19.2 -2.6 80 -21.9 -7.4 0 0
21:29 1029 30.39 858 25.34 -19.3 -2.8 82 -21.7 -7 0 0
21:30 1029 30.39 858 25.34 -19.3 -2.7 83 -21.5 -6.8 0 0
21:31 1029 30.39 858 25.34 -19.2 -2.6 82 -21.6 -6.9 0 0
21:32 1029 30.39 858 25.34 -19.3 -2.7 81 -21.7 -7.1 0 0
21:33 1029 30.39 858 25.34 -19.4 -2.9 81 -22 -7.5 0 0
21:34 1029 30.39 858 25.34 -19.4 -2.9 83 -21.7 -7 0 0
21:35 1029 30.39 858 25.34 -19.3 -2.7 84 -21.3 -6.4 0 0
21:36 1029 30.39 858 25.34 -19.2 -2.5 82 -21.5 -6.6 0 0
21:37 1029 30.39 858 25.34 -19.1 -2.4 83 -21.4 -6.5 0 0
21:38 1029 30.39 858 25.34 -19.1 -2.4 82 -21.5 -6.7 0 0
21:39 1029 30.39 858 25.34 -19.2 -2.6 81 -21.7 -7.1 0 0
21:40 1029 30.39 858 25.34 -19.4 -3 79 -22.2 -8 0 0
21:41 1029 30.39 858 25.34 -19.6 -3.3 81 -22.1 -7.8 0 0
21:42 1029 30.39 858 25.34 -19.6 -3.3 83 -21.8 -7.3 0 0
21:43 1029 30.39 858 25.34 -19.5 -3 84 -21.5 -6.7 0 0
21:44 1029 30.39 858 25.34 -19.2 -2.6 84 -21.2 -6.2 0 0
21:45 1029 30.39 858 25.34 -19.1 -2.3 83 -21.3 -6.4 0 0
21:46 1029 30.39 858 25.34 -19 -2.3 82 -21.4 -6.5 0 0
21:47 1029 30.39 858 25.34 -19 -2.2 82 -21.3 -6.4 0 0
21:48 1029 30.39 858 25.34 -19 -2.3 81 -21.6 -6.8 0 0
21:49 1029 30.39 858 25.34 -19.2 -2.6 80 -21.9 -7.4 0 0
21:50 1029 30.39 858 25.34 -19.4 -2.9 79 -22.2 -7.9 0 0
21:51 1029 30.39 858 25.34 -19.6 -3.4 78 -22.6 -8.7 0 0
21:52 1029 30.39 858 25.34 -19.9 -3.8 79 -22.7 -8.8 0 0
21:53 1029 30.39 858 25.34 -19.9 -3.8 81 -22.3 -8.1 0 0
21:54 1029 30.39 858 25.34 -19.6 -3.4 83 -21.8 -7.3 0 0
21:55 1029 30.39 858 25.34 -19.5 -3 82 -21.9 -7.4 0 0
21:56 1029 30.39 858 25.34 -19.5 -3.1 78 -22.4 -8.3 0 0
21:57 1029 30.39 858 25.34 -19.8 -3.6 77 -22.8 -9.1 0 0
21:58 1029 30.39 858 25.34 -20 -4 78 -22.9 -9.3 0 0
21:59 1029 30.39 858 25.34 -20 -4 81 -22.5 -8.5 0 0
22:00 1029 30.39 858 25.34 -19.9 -3.9 79 -22.7 -8.8 0 0
22:01 1029 30.39 858 25.34 -20.1 -4.2 78 -23 -9.4 0 0
22:02 1029 30.39 858 25.34 -20.2 -4.3 79 -23 -9.4 0 0
22:03 1029 30.39 858 25.34 -20.3 -4.6 78 -23.2 -9.8 0 0
22:04 1029 30.39 858 25.34 -20.4 -4.7 80 -23.1 -9.5 0 0
22:05 1029 30.39 858 25.34 -20.3 -4.6 82 -22.6 -8.6 0 0
22:06 1029 30.39 858 25.34 -20 -4 84 -22.1 -7.7 0 0
22:07 1029 30.39 858 25.34 -19.8 -3.6 82 -22.1 -7.8 0 0
22:08 1029 30.39 858 25.34 -19.8 -3.6 80 -22.4 -8.3 0 0
22:09 1029 30.39 858 25.34 -19.8 -3.7 80 -22.5 -8.4 0 0
22:10 1029 30.39 858 25.34 -19.8 -3.6 81 -22.2 -7.9 0 0
22:11 1029 30.39 858 25.34 -19.7 -3.5 81 -22.3 -8.1 0 0
22:12 1029 30.39 858 25.34 -19.7 -3.4 81 -22.1 -7.8 0 0
22:13 1029 30.39 858 25.34 -19.7 -3.4 80 -22.3 -8.2 0 0
22:14 1029 30.39 858 25.34 -19.8 -3.7 77 -22.8 -9.1 0 0
22:15 1029 30.39 858 25.34 -20.2 -4.3 77 -23.2 -9.8 0 0
22:16 1029 30.39 858 25.34 -20.3 -4.6 79 -23.1 -9.7 0 0
22:17 1029 30.39 858 25.34 -20.4 -4.8 78 -23.3 -9.9 0 0
22:18 1029 30.39 858 25.34 -20.5 -4.8 82 -22.8 -9.1 0 0
22:19 1029 30.39 858 25.34 -20.2 -4.3 84 -22.2 -8 0 0
22:20 1029 30.39 858 25.34 -20.1 -4.1 81 -22.6 -8.6 0 0
22:21 1029 30.39 858 25.34 -20.1 -4.3 80 -22.7 -8.9 0 0
22:22 1029 30.39 858 25.34 -20.3 -4.6 78 -23.2 -9.7 0 0
22:23 1029 30.39 858 25.34 -20.3 -4.6 81 -22.8 -9 0 0
22:24 1029 30.39 858 25.34 -20.2 -4.3 82 -22.5 -8.4 0 0
22:25 1029 30.39 858 25.34 -20 -4 82 -22.3 -8.2 0 0
22:26 1029 30.39 858 25.34 -20 -3.9 81 -22.5 -8.5 0 0
22:27 1029 30.39 858 25.34 -20.1 -4.1 79 -22.8 -9 0 0
22:28 1029 30.39 858 25.34 -20.2 -4.3 80 -22.8 -9.1 0 0
22:29 1029 30.39 858 25.34 -20.1 -4.1 82 -22.3 -8.2 0 0
22:30 1029 30.39 858 25.34 -19.6 -3.2 86 -21.4 -6.5 0 0
22:31 1029 30.39 858 25.34 -19.1 -2.5 84 -21.3 -6.3 0 0
22:32 1029 30.39 858 25.34 -18.8 -1.8 84 -20.8 -5.5 0 0
22:33 1029 30.39 858 25.34 -18.4 -1 83 -20.6 -5.1 0 0
22:34 1029 30.39 858 25.34 -18.1 -0.5 80 -20.7 -5.3 0 0
22:35 1029 30.39 858 25.34 -18 -0.4 79 -20.8 -5.5 0 0
22:36 1029 30.39 858 25.34 -18.1 -0.6 77 -21.3 -6.3 0 0
22:37 1029 30.39 858 25.34 -18.4 -1.2 74 -21.9 -7.4 0 0
22:38 1029 30.39 858 25.34 -18.8 -1.8 77 -21.9 -7.4 0 0
22:39 1029 30.39 858 25.34 -18.9 -2.1 76 -22.1 -7.8 0 0
22:40 1029 30.39 858 25.34 -19.3 -2.8 74 -22.8 -9.1 0 0
22:41 1029 30.39 858 25.34 -19.7 -3.4 74 -23.2 -9.7 0 0
22:42 1029 30.39 858 25.34 -20.1 -4.2 75 -23.4 -10.1 0 0
22:43 1029 30.39 858 25.34 -20.1 -4.3 80 -22.7 -8.8 0 0
22:44 1029 30.39 858 25.34 -19.9 -3.9 80 -22.6 -8.6 0 0
22:45 1029 30.39 858 25.34 -20.3 -4.5 76 -23.5 -10.3 0 0
22:46 1029 30.39 858 25.34 -20.3 -4.5 81 -22.8 -9.1 0 0
22:47 1029 30.39 858 25.34 -20.1 -4.2 82 -22.4 -8.4 0 0
22:48 1029 30.39 858 25.34 -19.9 -3.7 83 -22 -7.6 0 0
22:49 1029 30.39 858 25.34 -19.7 -3.4 83 -21.8 -7.3 0 0
22:50 1029 30.39 858 25.34 -19.4 -3 82 -21.8 -7.3 0 0
22:51 1029 30.39 858 25.34 -19.6 -3.2 78 -22.5 -8.5 0 0
22:52 1029 30.39 858 25.34 -19.6 -3.2 82 -21.9 -7.3 0 0
22:53 1029 30.39 858 25.34 -19.4 -2.8 81 -21.9 -7.3 0 0
22:54 1029 30.39 858 25.34 -19.4 -2.8 80 -22 -7.5 0 0
22:55 1029 30.39 858 25.34 -19.4 -2.9 80 -22 -7.5 0 0
22:56 1029 30.39 858 25.34 -19.2 -2.6 83 -21.4 -6.6 0 0
22:57 1029 30.39 858 25.34 -18.7 -1.6 87 -20.4 -4.7 0 0
22:58 1029 30.39 858 25.34 -18.1 -0.5 84 -20.2 -4.3 0 0
22:59 1029 30.39 858 25.34 -18.1 -0.6 76 -21.3 -6.4 0 0
23:00 1029 30.39 858 25.34 -18.5 -1.3 75 -21.9 -7.4 0 0
23:01 1029 30.39 858 25.34 -18.8 -1.8 77 -21.9 -7.4 0 0
23:02 1029 30.39 858 25.34 -19 -2.1 77 -22.1 -7.7 0 0
23:03 1029 30.39 858 25.34 -19.1 -2.4 80 -21.8 -7.2 0 0
23:04 1029 30.39 858 25.34 -19.1 -2.4 82 -21.4 -6.6 0 0
23:05 1029 30.39 858 25.34 -18.8 -1.8 85 -20.7 -5.2 0 0
23:06 1029 30.39 858 25.34 -18.3 -0.9 86 -20.1 -4.2 0 0
23:07 1029 30.39 858 25.34 -17.9 -0.3 83 -20.2 -4.3 0 0
23:08 1029 30.39 858 25.34 -18 -0.3 80 -20.6 -5.1 0 0
23:09 1029 30.39 858 25.34 -18.1 -0.6 76 -21.3 -6.4 0 0
23:10 1029 30.39 858 25.34 -18.4 -1.2 79 -21.3 -6.4 0 0
23:11 1029 30.39 858 25.34 -18.5 -1.3 78 -21.4 -6.5 0 0
23:12 1029 30.39 858 25.34 -18.5 -1.4 80 -21.2 -6.2 0 0
23:13 1029 30.39 858 25.34 -18.6 -1.5 78 -21.5 -6.8 0 0
23:14 1029 30.39 858 25.34 -18.7 -1.7 78 -21.7 -7 0 0
23:15 1029 30.39 858 25.34 -18.8 -1.8 81 -21.3 -6.4 0 0
23:16 1029 30.39 858 25.34 -18.6 -1.4 79 -21.3 -6.3 0 0
23:17 1029 30.39 858 25.34 -18.6 -1.4 80 -21.2 -6.2 0 0
23:18 1029 30.39 858 25.34 -18.5 -1.3 78 -21.4 -6.5 0 0
23:19 1029 30.39 858 25.34 -18.7 -1.6 76 -21.9 -7.4 0 0
23:20 1029 30.39 858 25.34 -18.8 -1.9 76 -22.1 -7.8 0 0
23:21 1029 30.39 858 25.34 -19.1 -2.4 74 -22.7 -8.8 0 0
23:22 1029 30.39 858 25.34 -19.3 -2.8 78 -22.2 -8 0 0
23:23 1029 30.39 858 25.34 -19.3 -2.8 80 -21.9 -7.4 0 0
23:24 1029 30.39 858 25.34 -18.9 -1.9 86 -20.7 -5.2 0 0
23:25 1029 30.39 858 25.34 -18.3 -0.9 85 -20.2 -4.3 0 0
23:26 1029 30.39 858 25.34 -18.2 -0.7 74 -21.7 -7 0 0
23:27 1029 30.39 858 25.34 -19 -2.1 69 -23.3 -10 0 0
23:28 1029 30.39 858 25.34 -19.6 -3.3 73 -23.3 -9.9 0 0
23:29 1029 30.39 858 25.34 -20.1 -4.1 73 -23.8 -10.8 0 0
23:30 1029 30.39 858 25.34 -20.5 -4.8 75 -23.8 -10.8 0 0
23:31 1029 30.39 858 25.34 -20.3 -4.6 82 -22.7 -8.8 0 0
23:32 1029 30.39 858 25.34 -19.7 -3.4 85 -21.5 -6.8 0 0
23:33 1029 30.39 858 25.34 -19.2 -2.5 83 -21.4 -6.6 0 0
23:34 1029 30.39 858 25.34 -19 -2.2 79 -21.8 -7.2 0 0
23:35 1029 30.39 858 25.34 -19.4 -2.8 72 -23.2 -9.7 0 0
23:36 1029 30.39 858 25.34 -19.7 -3.4 76 -22.9 -9.3 0 0
23:37 1029 30.39 858 25.34 -20.1 -4.2 71 -24.1 -11.3 0 0
23:38 1029 30.39 858 25.34 -20.5 -5 75 -23.9 -11 0 0
23:39 1029 30.39 858 25.34 -20.7 -5.2 77 -23.7 -10.6 0 0
23:40 1029 30.39 858 25.34 -20.7 -5.3 79 -23.5 -10.4 0 0
23:41 1029 30.39 858 25.34 -20.6 -5.1 82 -23 -9.4 0 0
23:42 1029 30.39 858 25.34 -20.5 -5 79 -23.2 -9.8 0 0
23:43 1029 30.39 858 25.34 -20.6 -5 80 -23.2 -9.8 0 0
23:44 1029 30.39 858 25.34 -20.5 -5 79 -23.3 -9.9 0 0
23:45 1029 30.39 858 25.34 -20.6 -5.1 78 -23.5 -10.2 0 0
23:46 1029 30.39 858 25.34 -20.6 -5 82 -22.9 -9.2 0 0
23:47 1029 30.39 858 25.34 -20.2 -4.4 83 -22.4 -8.4 0 0
23:48 1029 30.39 858 25.34 -20 -4 82 -22.4 -8.3 0 0
23:49 1029 30.39 858 25.34 -20 -4 78 -22.9 -9.2 0 0
23:50 1029 30.39 858 25.34 -20.1 -4.1 78 -23 -9.3 0 0
23:51 1029 30.39 858 25.34 -20.2 -4.4 77 -23.3 -9.9 0 0
23:52 1029 30.39 858 25.34 -20.4 -4.7 78 -23.3 -9.9 0 0
23:53 1029 30.39 858 25.34 -20.3 -4.6 79 -23.1 -9.6 0 0
23:54 1029 30.39 858 25.34 -20 -3.9 84 -22 -7.6 0 0
23:55 1029 30.39 858 25.34 -19.4 -3 83 -21.7 -7 0 0
23:56 1029 30.39 858 25.34 -19 -2.3 81 -21.6 -6.9 0 0
23:57 1029 30.39 858 25.34 -18.7 -1.7 80 -21.3 -6.4 0 0
23:58 1029 30.39 858 25.34 -18.6 -1.5 75 -22.1 -7.7 0 0
23:59 1029 30.39 858 25.34 -18.8 -1.9 75 -22.2 -7.9 0 0
24:00 1028 30.36 858 25.34 -19.1 -2.3 75 -22.5 -8.5 0 0